Time;durP1;ratioP1;P1;durP2;ratioP2;P2;SDS_P1;SDS_P2;PMS_P1;PMS_P2;Temp;Humidity;BMP_temperature;BMP_pressure;BME280_temperature;BME280_humidity;BME280_pressure;Samples;Min_cycle;Max_cycle;Signal;HPM_P1;HPM_P2
2022/08/16 00:00:51;;;;;;;19.50;15.50;;;;;;;17.55;100.00;100545.50;5224264;28;20017;-67
2022/08/16 00:03:22;;;;;;;19.42;17.80;;;;;;;17.56;100.00;100555.31;5221626;28;20021;-64
2022/08/16 00:05:52;;;;;;;18.10;16.55;;;;;;;17.54;100.00;100563.81;5224046;28;20374;-66
2022/08/16 00:08:22;;;;;;;16.80;15.57;;;;;;;17.39;100.00;100544.22;5223454;28;20357;-67
2022/08/16 00:10:53;;;;;;;18.63;17.15;;;;;;;17.52;100.00;100563.31;5221193;28;20028;-66
2022/08/16 00:13:23;;;;;;;20.67;17.80;;;;;;;17.46;100.00;100567.25;5223701;28;20024;-67
2022/08/16 00:15:54;;;;;;;16.15;14.60;;;;;;;17.48;100.00;100564.22;5224975;28;20016;-67
2022/08/16 00:18:24;;;;;;;16.48;15.27;;;;;;;17.43;100.00;100556.16;5223609;28;20025;-67
2022/08/16 00:20:55;;;;;;;13.20;12.30;;;;;;;17.45;100.00;100568.38;5251111;22;20041;-81
2022/08/16 00:23:25;;;;;;;16.35;14.82;;;;;;;17.33;100.00;100548.19;5254196;28;20082;-79
2022/08/16 00:25:55;;;;;;;13.52;12.20;;;;;;;17.26;100.00;100539.66;5254091;28;20040;-80
2022/08/16 00:28:26;;;;;;;13.63;12.50;;;;;;;17.42;100.00;100569.00;5255038;28;20028;-80
2022/08/16 00:30:56;;;;;;;15.13;14.10;;;;;;;17.38;100.00;100565.25;5255234;28;20123;-80
2022/08/16 00:33:27;;;;;;;13.23;12.00;;;;;;;17.41;100.00;100574.75;5235723;28;20108;-79
2022/08/16 00:35:58;;;;;;;12.93;12.02;;;;;;;17.36;100.00;100578.41;5254853;28;20024;-79
2022/08/16 00:38:28;;;;;;;12.38;11.48;;;;;;;17.36;100.00;100572.13;5275369;28;20511;-79
2022/08/16 00:41:00;;;;;;;14.68;13.48;;;;;;;17.30;100.00;100579.66;5277346;28;20020;-80
2022/08/16 00:43:35;;;;;;;15.85;14.63;;;;;;;17.28;100.00;100581.09;5275946;28;20024;-79
2022/08/16 00:46:24;;;;;;;13.88;12.68;;;;;;;17.14;100.00;100564.72;5275270;28;20084;-79
2022/08/16 00:48:55;;;;;;;15.43;14.23;;;;;;;17.26;100.00;100589.56;5274413;28;20075;-79
2022/08/16 00:51:26;;;;;;;13.38;12.30;;;;;;;16.65;100.00;100502.81;5259626;28;20039;-79
2022/08/16 00:57:24;;;;;;;17.35;16.08;;;;;;;16.70;100.00;100511.69;5248075;28;20077;-78
2022/08/16 00:59:55;;;;;;;16.02;14.00;;;;;;;17.13;100.00;100584.94;5247456;28;20432;-79
2022/08/16 01:02:25;;;;;;;15.73;14.43;;;;;;;17.10;100.00;100586.34;5246739;28;20082;-79
2022/08/16 01:04:56;;;;;;;13.45;12.55;;;;;;;16.82;100.00;100558.31;5228821;28;20016;-81
2022/08/16 01:07:27;;;;;;;14.82;13.73;;;;;;;16.99;100.00;100586.91;5247423;28;20029;-79
2022/08/16 01:09:58;;;;;;;15.02;13.88;;;;;;;16.94;100.00;100582.34;5247290;28;20348;-80
2022/08/16 01:12:28;;;;;;;13.70;12.77;;;;;;;16.79;100.00;100563.56;5254557;28;20024;-79
2022/08/16 01:14:59;;;;;;;13.82;12.90;;;;;;;16.77;100.00;100563.06;5267373;28;20119;-80
2022/08/16 01:17:32;;;;;;;14.07;12.98;;;;;;;16.85;100.00;100582.25;5250707;28;20090;-79
2022/08/16 01:20:06;;;;;;;21.67;14.10;;;;;;;16.84;100.00;100583.38;5268236;28;20392;-81
2022/08/16 01:22:59;;;;;;;15.07;13.40;;;;;;;16.82;100.00;100580.13;5268413;28;20028;-79
2022/08/16 01:25:35;;;;;;;12.60;11.63;;;;;;;16.83;100.00;100580.94;5267295;28;20032;-79
2022/08/16 01:28:12;;;;;;;16.40;14.98;;;;;;;16.83;100.00;100579.03;5267914;28;20048;-79
2022/08/16 01:30:48;;;;;;;13.10;12.25;;;;;;;16.79;100.00;100577.19;5269492;28;20052;-78
2022/08/16 01:33:19;;;;;;;13.75;12.85;;;;;;;16.83;100.00;100576.28;5266727;28;20066;-83
2022/08/16 01:35:53;;;;;;;16.15;14.63;;;;;;;16.85;100.00;100578.72;5266877;28;20023;-80
2022/08/16 01:38:31;;;;;;;14.68;13.30;;;;;;;16.83;100.00;100586.41;5267554;28;20034;-78
2022/08/16 01:41:20;;;;;;;13.80;12.80;;;;;;;16.80;100.00;100582.34;5249328;28;20489;-82
2022/08/16 01:43:52;;;;;;;16.33;13.73;;;;;;;16.81;100.00;100583.97;5266855;28;20024;-79
2022/08/16 01:46:28;;;;;;;13.90;12.73;;;;;;;16.80;100.00;100589.72;5267764;28;20038;-80
2022/08/16 01:49:03;;;;;;;16.10;14.75;;;;;;;16.73;100.00;100590.16;5248155;28;20396;-80
2022/08/16 01:51:35;;;;;;;17.35;15.93;;;;;;;16.74;100.00;100601.88;5269932;28;20016;-78
2022/08/16 01:54:06;;;;;;;14.25;13.00;;;;;;;16.46;100.00;100555.47;5269578;28;20131;-80
2022/08/16 01:56:37;;;;;;;15.30;14.30;;;;;;;16.71;100.00;100597.84;5269460;28;20481;-82
2022/08/16 02:02:18;;;;;;;15.32;13.98;;;;;;;16.65;100.00;100592.78;5312307;22;20041;-64
2022/08/16 02:04:49;;;;;;;15.98;14.68;;;;;;;16.66;100.00;100586.22;5266040;28;20032;-64
2022/08/16 02:07:19;;;;;;;14.48;13.35;;;;;;;16.64;100.00;100600.16;5265641;28;20032;-64
2022/08/16 02:12:27;;;;;;;13.75;12.77;;;;;;;16.61;100.00;100599.91;5234383;28;20074;-65
2022/08/16 02:14:58;;;;;;;16.27;14.15;;;;;;;16.47;100.00;100580.81;5227625;28;20025;-64
2022/08/16 02:17:29;;;;;;;13.82;12.82;;;;;;;16.59;100.00;100594.75;5205939;28;20029;-66
2022/08/16 02:19:59;;;;;;;13.63;12.63;;;;;;;16.62;100.00;100596.88;5224725;28;20021;-63
2022/08/16 02:22:30;;;;;;;14.02;13.02;;;;;;;16.60;100.00;100592.84;5224608;28;20469;-63
2022/08/16 02:25:04;;;;;;;13.90;12.88;;;;;;;16.55;100.00;100597.28;5205733;28;20416;-63
2022/08/16 02:27:34;;;;;;;14.68;13.52;;;;;;;16.54;100.00;100597.56;5205870;28;20128;-63
2022/08/16 02:30:07;;;;;;;16.35;14.80;;;;;;;16.15;100.00;100536.19;5223436;28;20451;-64
2022/08/16 02:32:38;;;;;;;15.75;14.18;;;;;;;16.50;100.00;100594.63;5223999;28;20151;-65
2022/08/16 02:35:09;;;;;;;15.07;13.70;;;;;;;16.54;100.00;100600.31;5223859;28;20021;-63
2022/08/16 02:37:40;;;;;;;15.60;14.30;;;;;;;16.54;100.00;100586.66;5206537;28;20059;-63
2022/08/16 02:40:12;;;;;;;15.77;14.48;;;;;;;16.52;100.00;100584.25;5205162;28;20017;-64
2022/08/16 02:42:44;;;;;;;15.65;14.27;;;;;;;16.45;100.00;100581.13;5224503;28;20108;-64
2022/08/16 02:45:16;;;;;;;16.40;15.02;;;;;;;16.44;100.00;100586.88;5224227;28;20032;-68
2022/08/16 02:47:47;;;;;;;15.07;13.90;;;;;;;16.46;100.00;100588.16;5224788;28;20540;-64
2022/08/16 02:50:18;;;;;;;15.20;13.80;;;;;;;16.40;100.00;100577.69;5224703;28;20035;-64
2022/08/16 02:52:49;;;;;;;16.85;14.80;;;;;;;16.40;100.00;100577.69;5224325;28;20025;-64
2022/08/16 02:55:20;;;;;;;18.50;16.88;;;;;;;16.32;100.00;100575.66;5223829;28;20033;-64
2022/08/16 02:57:50;;;;;;;19.60;17.50;;;;;;;16.42;100.00;100586.38;5224117;28;20024;-64
2022/08/16 03:00:21;;;;;;;19.15;17.75;;;;;;;16.44;100.00;100584.16;5206167;28;20048;-63
2022/08/16 03:02:54;;;;;;;18.55;16.83;;;;;;;16.39;100.00;100581.53;5206152;28;20024;-63
2022/08/16 03:05:24;;;;;;;20.55;18.33;;;;;;;16.41;100.00;100591.03;5223586;28;20028;-63
2022/08/16 03:07:55;;;;;;;19.10;17.20;;;;;;;16.38;100.00;100577.19;5205612;28;20028;-62
2022/08/16 03:10:26;;;;;;;19.13;17.65;;;;;;;16.45;100.00;100591.22;5223371;28;20082;-62
2022/08/16 03:12:57;;;;;;;18.75;17.13;;;;;;;16.46;100.00;100598.28;5223676;28;20513;-62
2022/08/16 03:15:28;;;;;;;21.00;18.90;;;;;;;16.44;100.00;100578.72;5223194;28;20426;-62
2022/08/16 03:17:59;;;;;;;19.20;17.63;;;;;;;16.50;100.00;100582.94;5205484;28;20035;-62
2022/08/16 03:20:29;;;;;;;19.38;17.77;;;;;;;16.49;100.00;100582.13;5204958;28;20390;-62
2022/08/16 03:23:00;;;;;;;19.38;17.58;;;;;;;16.52;100.00;100583.44;5223020;28;20074;-62
2022/08/16 03:25:31;;;;;;;22.02;18.23;;;;;;;16.55;100.00;100577.38;5221878;28;20021;-61
2022/08/16 03:28:03;;;;;;;21.90;20.00;;;;;;;16.45;100.00;100566.69;5221926;28;20460;-65
2022/08/16 03:30:35;;;;;;;19.70;17.98;;;;;;;16.53;100.00;100585.06;5221806;28;20730;-61
2022/08/16 03:33:05;;;;;;;21.17;19.50;;;;;;;16.51;100.00;100584.53;5222012;28;20369;-62
2022/08/16 03:35:37;;;;;;;20.50;18.80;;;;;;;16.47;100.00;100575.34;5220685;28;20021;-62
2022/08/16 03:38:10;;;;;;;20.77;18.75;;;;;;;16.52;100.00;100583.44;5202540;28;20021;-62
2022/08/16 03:40:41;;;;;;;19.35;17.45;;;;;;;16.47;100.00;100573.44;5221954;28;20391;-62
2022/08/16 03:43:11;;;;;;;17.00;15.48;;;;;;;16.56;100.00;100592.63;5222195;28;20052;-62
2022/08/16 03:45:42;;;;;;;17.48;15.82;;;;;;;16.43;100.00;100574.38;5222110;28;20051;-63
2022/08/16 03:48:13;;;;;;;16.63;15.23;;;;;;;16.46;100.00;100588.16;5222223;28;20032;-62
2022/08/16 03:50:43;;;;;;;14.75;13.57;;;;;;;16.46;100.00;100593.63;5221964;28;20025;-62
2022/08/16 03:53:14;;;;;;;17.17;15.93;;;;;;;16.30;100.00;100578.69;5221534;28;20067;-63
2022/08/16 03:55:44;;;;;;;21.88;19.45;;;;;;;16.39;100.00;100604.13;5222289;28;20457;-62
2022/08/16 03:58:15;;;;;;;17.70;16.20;;;;;;;16.38;100.00;100607.97;5228454;28;20123;-62
2022/08/16 04:00:45;;;;;;;17.60;16.35;;;;;;;16.34;100.00;100611.59;5228976;28;20027;-63
2022/08/16 04:03:16;;;;;;;17.38;15.98;;;;;;;16.26;100.00;100604.91;5210611;28;20063;-63
2022/08/16 04:05:49;;;;;;;16.58;15.15;;;;;;;16.23;100.00;100604.69;5228426;28;20111;-62
2022/08/16 04:08:20;;;;;;;17.20;15.45;;;;;;;16.20;100.00;100611.56;5228613;28;20075;-61
2022/08/16 04:10:53;;;;;;;18.67;16.90;;;;;;;16.18;100.00;100608.31;5228274;28;20029;-61
2022/08/16 04:13:24;;;;;;;16.42;15.15;;;;;;;16.08;100.00;100605.78;5228472;28;20037;-61
2022/08/16 04:15:58;;;;;;;21.63;19.40;;;;;;;16.11;100.00;100630.53;5228433;28;20432;-62
2022/08/16 04:18:29;;;;;;;16.58;15.40;;;;;;;16.06;100.00;100629.78;5227680;28;20048;-61
2022/08/16 04:21:00;;;;;;;17.42;15.48;;;;;;;16.03;100.00;100631.19;5228389;28;20057;-63
2022/08/16 04:23:30;;;;;;;17.40;16.05;;;;;;;16.06;100.00;100630.59;5225549;28;20203;-62
2022/08/16 04:26:01;;;;;;;20.13;18.42;;;;;;;16.10;100.00;100639.00;5229249;28;20475;-63
2022/08/16 04:28:31;;;;;;;17.42;16.17;;;;;;;16.10;100.00;100636.25;5228483;28;20024;-62
2022/08/16 04:31:02;;;;;;;16.85;15.48;;;;;;;16.10;100.00;100634.34;5228431;28;20043;-62
2022/08/16 04:33:32;;;;;;;18.15;15.65;;;;;;;16.10;100.00;100634.34;5228306;28;20142;-62
2022/08/16 04:36:03;;;;;;;17.45;16.05;;;;;;;16.10;100.00;100642.53;5228768;28;20427;-61
2022/08/16 04:38:33;;;;;;;16.75;15.05;;;;;;;16.10;100.00;100639.00;5228634;28;20029;-64
2022/08/16 04:41:04;;;;;;;14.38;13.48;;;;;;;16.12;100.00;100643.03;5228095;28;20035;-63
2022/08/16 04:43:37;;;;;;;17.33;15.93;;;;;;;16.14;100.00;100640.81;5228610;28;20487;-63
2022/08/16 04:46:08;;;;;;;15.25;14.10;;;;;;;16.15;100.00;100631.53;5229639;28;20036;-63
2022/08/16 04:48:40;;;;;;;18.05;15.05;;;;;;;16.16;100.00;100627.72;5227438;28;20368;-63
2022/08/16 04:51:10;;;;;;;16.75;15.35;;;;;;;15.97;100.00;100604.34;5228460;28;20174;-63
2022/08/16 04:53:41;;;;;;;14.25;13.10;;;;;;;16.13;100.00;100628.31;5227554;28;20310;-63
2022/08/16 04:56:11;;;;;;;16.02;14.75;;;;;;;16.16;100.00;100638.63;5207917;28;20083;-63
2022/08/16 04:58:44;;;;;;;17.25;15.77;;;;;;;16.05;100.00;100628.97;5228604;28;20056;-61
2022/08/16 05:01:16;;;;;;;16.88;15.38;;;;;;;16.16;100.00;100648.69;5228558;28;20108;-61
2022/08/16 05:03:47;;;;;;;14.75;13.55;;;;;;;16.11;100.00;100638.69;5228079;28;20099;-61
2022/08/16 05:06:18;;;;;;;18.17;16.77;;;;;;;16.18;100.00;100647.28;5226924;28;20040;-62
2022/08/16 05:08:49;;;;;;;15.77;14.35;;;;;;;16.22;100.00;100650.22;5228578;28;20319;-63
2022/08/16 05:11:21;;;;;;;15.38;14.13;;;;;;;16.26;100.00;100655.88;5222053;28;20032;-63
2022/08/16 05:13:51;;;;;;;14.60;13.35;;;;;;;16.29;100.00;100649.81;5205380;28;20020;-63
2022/08/16 05:16:26;;;;;;;13.35;12.25;;;;;;;16.33;100.00;100659.84;5224441;28;20047;-62
2022/08/16 05:19:01;;;;;;;17.25;15.65;;;;;;;16.39;100.00;100646.94;5206221;28;20433;-64
2022/08/16 05:21:32;;;;;;;15.20;13.75;;;;;;;16.45;100.00;100646.56;5224573;28;20115;-62
2022/08/16 05:24:04;;;;;;;15.63;14.43;;;;;;;16.54;100.00;100652.09;5223898;28;20029;-61
2022/08/16 05:26:36;;;;;;;15.25;14.10;;;;;;;16.62;100.00;100656.06;5210960;28;20075;-63
2022/08/16 05:29:06;;;;;;;14.52;13.00;;;;;;;16.73;100.00;100663.78;5244849;28;20500;-63
2022/08/16 05:31:37;;;;;;;15.30;13.93;;;;;;;16.78;100.00;100666.38;5244930;28;20021;-63
2022/08/16 05:34:07;;;;;;;15.80;14.30;;;;;;;16.75;100.00;100656.09;5244186;28;20476;-63
2022/08/16 05:36:38;;;;;;;12.80;11.63;;;;;;;16.92;100.00;100668.31;5244514;28;20362;-62
2022/08/16 05:39:08;;;;;;;17.98;13.05;;;;;;;17.00;100.00;100675.81;5244755;28;20385;-63
2022/08/16 05:41:38;;;;;;;19.20;10.27;;;;;;;17.07;100.00;100673.47;5246502;28;20058;-63
2022/08/16 05:44:09;;;;;;;14.27;13.10;;;;;;;17.13;100.00;100664.88;5245210;28;20024;-63
2022/08/16 05:46:40;;;;;;;11.60;10.65;;;;;;;17.25;100.00;100674.47;5245412;28;20370;-63
2022/08/16 05:49:12;;;;;;;12.98;11.95;;;;;;;17.32;100.00;100669.44;5245268;28;20483;-62
2022/08/16 05:51:44;;;;;;;13.55;12.60;;;;;;;17.38;100.00;100654.53;5244871;28;20024;-63
2022/08/16 05:54:18;;;;;;;13.77;12.82;;;;;;;17.53;100.00;100668.66;5240601;28;20017;-63
2022/08/16 05:56:49;;;;;;;13.60;12.63;;;;;;;17.64;100.00;100671.97;5244364;28;20086;-64
2022/08/16 05:59:19;;;;;;;14.05;12.60;;;;;;;17.71;100.00;100671.56;5244011;28;20016;-63
2022/08/16 06:01:50;;;;;;;12.10;11.10;;;;;;;17.86;100.00;100679.44;5225422;28;20414;-63
2022/08/16 06:04:21;;;;;;;14.13;12.98;;;;;;;18.02;100.00;100682.59;5244024;28;20050;-63
2022/08/16 06:06:51;;;;;;;16.45;14.82;;;;;;;18.09;100.00;100683.78;5243629;28;20048;-62
2022/08/16 06:09:22;;;;;;;13.60;12.50;;;;;;;18.11;100.00;100676.09;5244197;28;20017;-63
2022/08/16 06:11:53;;;;;;;14.25;13.23;;;;;;;18.18;100.00;100686.59;5226128;28;20120;-63
2022/08/16 06:14:23;;;;;;;12.50;11.43;;;;;;;18.17;100.00;100677.59;5244675;28;20107;-62
2022/08/16 06:16:54;;;;;;;15.18;13.75;;;;;;;18.20;100.00;100690.59;5245642;28;20028;-61
2022/08/16 06:19:24;;;;;;;13.85;12.63;;;;;;;18.23;100.00;100689.19;5257434;22;20096;-66
2022/08/16 06:21:55;;;;;;;15.02;13.63;;;;;;;18.26;100.00;100685.00;5229445;28;20113;-67
2022/08/16 06:24:25;;;;;;;14.43;13.23;;;;;;;18.29;100.00;100682.47;5224506;28;20038;-64
2022/08/16 06:26:56;;;;;;;13.65;12.55;;;;;;;18.38;100.00;100696.19;5225358;28;20029;-66
2022/08/16 06:29:26;;;;;;;23.15;14.15;;;;;;;18.45;100.00;100691.09;5225039;28;20415;-71
2022/08/16 06:31:57;;;;;;;14.40;13.30;;;;;;;18.49;100.00;100683.88;5225359;28;20588;-67
2022/08/16 06:34:27;;;;;;;12.95;11.90;;;;;;;18.55;100.00;100691.63;5224456;28;20025;-67
2022/08/16 06:36:58;;;;;;;15.15;13.63;;;;;;;18.57;100.00;100691.31;5225000;28;20476;-64
2022/08/16 06:39:29;;;;;;;13.88;12.90;;;;;;;18.62;100.00;100688.50;5224179;28;20017;-65
2022/08/16 06:41:59;;;;;;;16.08;14.77;;;;;;;18.67;100.00;100693.81;5224994;28;20033;-67
2022/08/16 06:44:30;;;;;;;14.10;12.75;;;;;;;18.79;100.00;100704.97;5227563;28;20098;-67
2022/08/16 06:47:00;;;;;;;15.93;14.52;;;;;;;18.73;100.00;100687.09;5244043;28;20024;-64
2022/08/16 06:49:31;;;;;;;15.63;14.15;;;;;;;18.93;100.00;100701.34;5245380;28;20016;-67
2022/08/16 06:52:01;;;;;;;21.92;15.45;;;;;;;19.02;100.00;100700.28;5245348;28;20098;-67
2022/08/16 06:54:33;;;;;;;17.05;14.63;;;;;;;19.14;100.00;100697.72;5244423;28;20477;-67
2022/08/16 06:57:04;;;;;;;16.13;14.88;;;;;;;19.26;100.00;100688.09;5227058;28;20033;-65
2022/08/16 06:59:34;;;;;;;14.90;13.57;;;;;;;19.34;100.00;100690.88;5245189;28;20013;-67
2022/08/16 07:02:05;;;;;;;15.45;13.98;;;;;;;19.44;100.00;100696.03;5245103;28;20024;-67
2022/08/16 07:04:35;;;;;;;16.60;15.15;;;;;;;19.29;100.00;100671.84;5226600;28;20027;-68
2022/08/16 07:07:06;;;;;;;16.75;15.30;;;;;;;19.58;100.00;100701.41;5244548;28;20020;-66
2022/08/16 07:09:36;;;;;;;16.77;15.20;;;;;;;19.68;100.00;100708.50;5244713;28;20023;-66
2022/08/16 07:12:07;;;;;;;17.45;15.10;;;;;;;19.70;100.00;100687.88;5245270;28;20028;-67
2022/08/16 07:14:37;;;;;;;15.02;13.85;;;;;;;19.91;100.00;100699.03;5244442;28;20111;-68
2022/08/16 07:17:08;;;;;;;13.30;12.32;;;;;;;20.16;100.00;100697.41;5227022;28;20024;-64
2022/08/16 07:19:39;;;;;;;15.18;13.98;;;;;;;20.41;100.00;100704.00;5244437;28;20021;-65
2022/08/16 07:22:09;;;;;;;17.25;15.70;;;;;;;20.69;100.00;100707.97;5244433;28;20024;-68
2022/08/16 07:24:40;;;;;;;17.77;14.43;;;;;;;20.95;100.00;100709.81;5239005;28;20058;-67
2022/08/16 07:27:11;;;;;;;12.93;11.65;;;;;;;21.15;100.00;100698.88;5241795;28;20073;-64
2022/08/16 07:29:41;;;;;;;12.07;11.18;;;;;;;21.48;100.00;100718.28;5219984;28;20024;-67
2022/08/16 07:32:12;;;;;;;12.65;11.50;;;;;;;21.76;100.00;100712.28;5241174;28;20043;-68
2022/08/16 07:34:42;;;;;;;13.55;12.45;;;;;;;22.00;100.00;100712.41;5244620;28;20028;-67
2022/08/16 07:37:13;;;;;;;13.73;12.70;;;;;;;22.29;100.00;100718.97;5244983;28;20024;-65
2022/08/16 07:39:44;;;;;;;13.60;12.52;;;;;;;22.44;100.00;100721.91;5244718;28;20016;-65
2022/08/16 07:42:14;;;;;;;13.65;12.32;;;;;;;22.65;100.00;100732.06;5244938;28;20028;-65
2022/08/16 07:44:44;;;;;;;12.07;10.88;;;;;;;22.84;100.00;100733.16;5226242;28;20643;-66
2022/08/16 07:47:15;;;;;;;12.75;11.70;;;;;;;23.01;100.00;100729.41;5244888;28;20028;-65
2022/08/16 07:49:45;;;;;;;10.75;9.85;;;;;;;23.30;100.00;100733.09;5245139;28;20111;-65
2022/08/16 07:52:16;;;;;;;11.45;10.40;;;;;;;23.45;100.00;100726.88;5245502;28;20041;-65
2022/08/16 07:54:46;;;;;;;12.90;10.73;;;;;;;23.54;100.00;100733.09;5245034;28;20031;-63
2022/08/16 07:57:16;;;;;;;11.00;10.25;;;;;;;23.69;100.00;100737.91;5245282;28;20021;-66
2022/08/16 07:59:47;;;;;;;11.68;10.35;;;;;;;23.85;100.00;100740.75;5244521;28;20060;-66
2022/08/16 08:02:18;;;;;;;10.45;9.70;;;;;;;24.07;100.00;100736.66;5244782;28;20035;-66
2022/08/16 08:04:48;;;;;;;10.82;10.10;;;;;;;24.30;100.00;100742.47;5244658;28;20029;-66
2022/08/16 08:07:18;;;;;;;11.82;10.82;;;;;;;24.45;100.00;100733.44;5244602;28;20021;-66
2022/08/16 08:09:49;;;;;;;9.93;9.02;;;;;;;24.56;100.00;100721.50;5244524;28;20115;-63
2022/08/16 08:12:21;;;;;;;8.80;7.97;;;;;;;24.68;100.00;100731.69;5244635;28;20395;-66
2022/08/16 08:14:52;;;;;;;10.40;9.32;;;;;;;24.63;100.00;100722.88;5209636;28;20395;-64
2022/08/16 08:17:22;;;;;;;10.18;9.18;;;;;;;24.73;100.00;100739.72;5226294;28;20052;-67
2022/08/16 08:19:53;;;;;;;10.07;9.35;;;;;;;24.86;100.00;100738.47;5229613;28;20044;-69
2022/08/16 08:22:24;;;;;;;13.50;9.50;;;;;;;24.95;100.00;100741.09;5205779;28;20061;-66
2022/08/16 08:24:54;;;;;;;8.65;8.05;;;;;;;25.01;100.00;100741.66;5203462;28;20041;-64
2022/08/16 08:27:26;;;;;;;15.02;9.07;;;;;;;25.30;100.00;100743.97;5223319;28;20024;-64
2022/08/16 08:29:57;;;;;;;8.70;8.20;;;;;;;25.55;100.00;100753.63;5222433;28;20465;-65
2022/08/16 08:32:27;;;;;;;13.38;9.00;;;;;;;25.75;100.00;100737.09;5222479;28;20090;-65
2022/08/16 08:35:00;;;;;;;8.30;7.57;;;;;;;25.98;100.00;100754.63;5204491;28;20025;-65
2022/08/16 08:37:35;;;;;;;9.10;8.43;;;;;;;26.15;100.00;100745.91;5222632;28;20078;-65
2022/08/16 08:40:09;;;;;;;10.52;9.55;;;;;;;26.20;100.00;100759.44;5222548;28;20025;-67
2022/08/16 08:42:42;;;;;;;9.02;8.40;;;;;;;26.24;100.00;100748.47;5223900;28;20029;-65
2022/08/16 08:45:14;;;;;;;8.02;7.45;;;;;;;26.39;100.00;100755.91;5208450;28;20075;-66
2022/08/16 08:47:48;;;;;;;8.10;7.60;;;;;;;26.42;100.00;100757.13;5227031;28;20045;-63
2022/08/16 08:50:18;;;;;;;7.90;7.25;;;;;;;26.62;100.00;100755.94;5226252;28;20028;-68
2022/08/16 08:52:50;;;;;;;9.32;8.48;;;;;;;26.74;100.00;100741.94;5226627;28;20029;-68
2022/08/16 08:55:21;;;;;;;8.82;8.18;;;;;;;26.92;100.00;100751.34;5207889;28;20037;-68
2022/08/16 08:57:52;;;;;;;9.15;8.18;;;;;;;26.94;100.00;100747.41;5226532;28;20086;-66
2022/08/16 09:00:24;;;;;;;5.90;5.50;;;;;;;27.10;100.00;100756.44;5226052;28;20021;-68
2022/08/16 09:02:56;;;;;;;11.25;6.55;;;;;;;27.25;100.00;100749.94;5226172;28;20028;-67
2022/08/16 09:05:27;;;;;;;8.40;7.90;;;;;;;27.44;97.70;100758.16;5224192;28;20020;-66
2022/08/16 09:07:57;;;;;;;8.60;7.53;;;;;;;27.52;100.00;100745.22;5207846;28;20032;-67
2022/08/16 09:10:30;;;;;;;10.70;8.25;;;;;;;27.83;96.76;100761.56;5226541;28;20016;-67
2022/08/16 09:13:01;;;;;;;10.98;6.30;;;;;;;27.95;95.16;100754.19;5226768;28;20043;-65
2022/08/16 09:15:31;;;;;;;6.65;6.07;;;;;;;28.19;94.92;100746.16;5225713;28;20357;-67
2022/08/16 09:18:03;;;;;;;5.93;5.43;;;;;;;28.40;89.17;100753.16;5226258;28;20632;-68
2022/08/16 09:20:34;;;;;;;6.75;5.85;;;;;;;28.54;89.82;100750.56;5225358;28;20135;-67
2022/08/16 09:23:04;;;;;;;6.30;5.90;;;;;;;28.57;84.00;100749.81;5207992;28;20701;-68
2022/08/16 09:25:35;;;;;;;12.15;7.32;;;;;;;28.72;82.16;100768.22;5228782;28;20415;-67
2022/08/16 09:28:06;;;;;;;6.93;5.80;;;;;;;28.68;81.82;100764.59;5246488;28;20099;-67
2022/08/16 09:30:38;;;;;;;6.75;5.47;;;;;;;28.59;83.28;100758.53;5246181;28;20062;-65
2022/08/16 09:33:09;;;;;;;5.32;5.00;;;;;;;28.75;83.40;100766.66;5211455;28;20016;-67
2022/08/16 09:35:40;;;;;;;6.25;5.25;;;;;;;28.86;84.76;100773.16;5245772;28;20017;-65
2022/08/16 09:38:12;;;;;;;6.47;5.47;;;;;;;29.09;81.34;100768.22;5246309;28;20032;-66
2022/08/16 09:40:45;;;;;;;6.13;4.85;;;;;;;29.38;81.87;100774.81;5246593;28;20396;-66
2022/08/16 09:43:19;;;;;;;15.88;5.68;;;;;;;29.45;76.06;100774.09;5246107;28;20039;-63
2022/08/16 09:45:50;;;;;;;8.80;6.53;;;;;;;29.35;76.61;100756.09;5245989;28;20032;-66
2022/08/16 09:48:20;;;;;;;4.75;4.30;;;;;;;29.33;73.66;100768.78;5242240;28;20035;-62
2022/08/16 09:50:51;;;;;;;6.10;5.75;;;;;;;29.23;73.76;100771.09;5246309;28;20451;-65
2022/08/16 09:53:22;;;;;;;5.43;5.13;;;;;;;29.20;73.98;100774.63;5246064;28;20048;-63
2022/08/16 09:55:54;;;;;;;8.88;6.38;;;;;;;29.34;75.60;100771.19;5245407;28;20033;-66
2022/08/16 09:58:26;;;;;;;4.60;4.40;;;;;;;29.21;68.42;100761.53;5246033;28;20081;-64
2022/08/16 10:00:56;;;;;;;5.40;4.97;;;;;;;29.37;71.75;100780.75;5246546;28;20024;-66
2022/08/16 10:03:27;;;;;;;6.35;5.95;;;;;;;29.38;68.94;100769.25;5227718;28;20111;-63
2022/08/16 10:05:57;;;;;;;5.10;4.57;;;;;;;29.39;68.44;100775.59;5228033;28;20392;-64
2022/08/16 10:08:28;;;;;;;5.13;4.85;;;;;;;29.36;66.70;100768.03;5225168;28;20025;-65
2022/08/16 10:13:47;;;;;;;;;;;;;;;29.18;65.84;100762.31;5225316;28;20040;-67
2022/08/16 10:16:17;;;;;;;5.43;5.13;;;;;;;29.38;65.84;100765.66;5225559;28;20273;-65
2022/08/16 10:18:48;;;;;;;5.75;5.40;;;;;;;29.54;69.36;100772.56;5224806;28;20656;-65
2022/08/16 10:21:18;;;;;;;4.82;4.32;;;;;;;29.71;66.27;100771.09;5224988;28;20025;-66
2022/08/16 10:23:50;;;;;;;5.40;5.00;;;;;;;29.86;68.56;100771.97;5224349;28;20031;-66
2022/08/16 10:26:25;;;;;;;3.95;3.65;;;;;;;29.92;67.62;100769.59;5224328;28;20033;-63
2022/08/16 10:28:55;;;;;;;5.47;4.25;;;;;;;29.90;64.33;100775.56;5238010;28;20024;-66
2022/08/16 10:31:26;;;;;;;5.05;4.55;;;;;;;30.00;65.30;100774.06;5244480;28;20020;-67
2022/08/16 10:33:56;;;;;;;4.18;3.97;;;;;;;29.83;64.71;100781.09;5244753;28;20020;-66
2022/08/16 10:36:27;;;;;;;4.22;3.80;;;;;;;29.72;64.43;100781.03;5227682;28;20031;-63
2022/08/16 10:38:58;;;;;;;7.10;5.72;;;;;;;29.52;64.26;100752.66;5226378;28;20035;-66
2022/08/16 10:41:28;;;;;;;4.85;4.47;;;;;;;29.56;66.17;100778.53;5245509;28;20017;-64
2022/08/16 10:43:59;;;;;;;6.57;4.00;;;;;;;29.50;66.48;100768.94;5244409;28;20035;-66
2022/08/16 10:46:29;;;;;;;5.13;4.72;;;;;;;29.28;64.95;100771.94;5245078;28;20024;-63
2022/08/16 10:49:00;;;;;;;5.57;5.10;;;;;;;28.96;64.23;100760.53;5226391;28;20032;-64
2022/08/16 10:51:31;;;;;;;5.63;5.20;;;;;;;28.97;65.37;100774.03;5244973;28;20036;-65
2022/08/16 10:54:01;;;;;;;4.57;4.18;;;;;;;28.87;66.60;100769.97;5244682;28;20032;-66
2022/08/16 10:56:32;;;;;;;4.78;4.47;;;;;;;28.81;67.61;100774.31;5245112;28;20388;-64
2022/08/16 10:59:02;;;;;;;3.70;3.40;;;;;;;28.74;65.23;100779.75;5244684;28;20512;-66
2022/08/16 11:01:33;;;;;;;5.97;5.57;;;;;;;28.80;67.99;100780.22;5244779;28;20028;-69
2022/08/16 11:04:04;;;;;;;4.50;4.20;;;;;;;28.69;66.32;100763.41;5244030;28;20050;-67
2022/08/16 11:06:36;;;;;;;5.90;5.00;;;;;;;28.85;68.79;100775.13;5243616;28;20503;-66
2022/08/16 11:09:07;;;;;;;3.92;3.72;;;;;;;28.83;68.63;100779.47;5244531;28;20021;-65
2022/08/16 11:11:37;;;;;;;5.50;4.85;;;;;;;28.88;69.09;100788.25;5244463;28;20017;-66
2022/08/16 11:14:08;;;;;;;7.72;4.78;;;;;;;28.91;68.33;100789.47;5244091;28;20029;-66
2022/08/16 11:16:38;;;;;;;5.13;4.25;;;;;;;28.81;66.01;100773.50;5225545;28;20035;-66
2022/08/16 11:19:09;;;;;;;4.80;4.35;;;;;;;28.86;68.69;100785.09;5243991;28;20026;-68
2022/08/16 11:21:42;;;;;;;19.65;5.93;;;;;;;29.24;68.02;100788.59;5244512;28;20028;-66
2022/08/16 11:24:13;;;;;;;3.85;3.65;;;;;;;29.55;67.64;100795.63;5244055;28;20192;-66
2022/08/16 11:26:43;;;;;;;6.30;5.95;;;;;;;29.80;66.46;100791.00;5244317;28;20024;-63
2022/08/16 11:29:14;;;;;;;5.97;5.43;;;;;;;30.12;65.20;100794.00;5244039;28;20112;-66
2022/08/16 11:31:46;;;;;;;6.43;5.55;;;;;;;30.52;64.40;100800.53;5243913;28;20024;-66
2022/08/16 11:34:16;;;;;;;4.75;4.45;;;;;;;30.57;63.28;100796.63;5243763;28;20032;-66
2022/08/16 11:36:50;;;;;;;8.10;6.65;;;;;;;30.55;62.06;100799.75;5244309;28;20104;-66